Time,TemperatureF,DewpointF,PressureIn,WindDirection,WindDirectionDegrees,WindSpeedMPH,WindSpeedGustMPH,Humidity,HourlyPrecipIn,Conditions,Clouds,dailyrainin,SoftwareType,DateUTC
2013-01-09 00:05:00,73.6,72.1,30.02,ESE,112,6.8,-999.0,95,-99.99,,,0.00,Acu-Link.com,2013-01-09 05:05:00,
2013-01-09 00:20:00,73.6,72.1,30.02,ESE,112,3.7,-999.0,95,-99.99,,,0.00,Acu-Link.com,2013-01-09 05:20:00,
2013-01-09 00:35:00,73.6,71.8,30.02,ESE,112,2.7,-999.0,94,-99.99,,,0.00,Acu-Link.com,2013-01-09 05:35:00,
2013-01-09 00:51:00,73.4,71.9,30.02,ESE,112,4.2,-999.0,95,-99.99,,,0.00,Acu-Link.com,2013-01-09 05:51:00,
2013-01-09 01:06:00,73.2,72.0,30.02,ESE,112,3.2,-999.0,96,-99.99,,,0.00,Acu-Link.com,2013-01-09 06:06:00,
2013-01-09 01:21:00,73.0,71.8,30.02,ESE,112,2.7,-999.0,96,-99.99,,,0.00,Acu-Link.com,2013-01-09 06:21:00,
2013-01-09 01:36:00,73.9,72.4,30.03,ESE,112,6.3,-999.0,95,-99.99,,,0.00,Acu-Link.com,2013-01-09 06:36:00,
2013-01-09 01:51:00,74.7,72.5,30.03,South,180,2.7,-999.0,93,-99.99,,,0.00,Acu-Link.com,2013-01-09 06:51:00,
2013-01-09 02:06:00,75.2,72.1,30.02,ESE,112,5.8,-999.0,90,-99.99,,,0.00,Acu-Link.com,2013-01-09 07:06:00,
2013-01-09 02:21:00,75.2,71.7,30.03,South,180,9.4,-999.0,89,-99.99,,,0.00,Acu-Link.com,2013-01-09 07:21:00,
2013-01-09 02:36:00,75.4,71.9,30.03,East,90,6.8,-999.0,89,-99.99,,,0.00,Acu-Link.com,2013-01-09 07:36:00,
2013-01-09 02:51:00,75.4,71.6,30.03,ESE,112,4.7,-999.0,88,-99.99,,,0.00,Acu-Link.com,2013-01-09 07:51:00,
2013-01-09 03:07:00,75.2,71.4,30.03,SSE,157,7.8,-999.0,88,-99.99,,,0.00,Acu-Link.com,2013-01-09 08:07:00,
2013-01-09 03:22:00,75.0,71.2,30.04,ESE,112,3.7,-999.0,88,-99.99,,,0.00,Acu-Link.com,2013-01-09 08:22:00,
2013-01-09 03:37:00,75.0,71.2,30.04,ESE,112,4.2,-999.0,88,-99.99,,,0.00,Acu-Link.com,2013-01-09 08:37:00,
2013-01-09 03:52:00,75.4,71.9,30.04,ESE,112,5.8,-999.0,89,-99.99,,,0.00,Acu-Link.com,2013-01-09 08:52:00,
2013-01-09 04:11:00,75.4,71.9,30.04,ESE,112,10.9,-999.0,89,-99.99,,,0.00,Acu-Link.com,2013-01-09 09:11:00,
2013-01-09 04:27:00,75.6,72.1,30.04,ESE,112,6.8,-999.0,89,-99.99,,,0.00,Acu-Link.com,2013-01-09 09:27:00,
2013-01-09 04:42:00,75.7,71.9,30.04,SE,135,7.3,-999.0,88,-99.99,,,0.00,Acu-Link.com,2013-01-09 09:42:00,
2013-01-09 04:58:00,75.4,71.6,30.04,ESE,112,9.4,-999.0,88,-99.99,,,0.00,Acu-Link.com,2013-01-09 09:58:00,
2013-01-09 05:13:00,75.2,71.7,30.04,SE,135,6.8,-999.0,89,-99.99,,,0.00,Acu-Link.com,2013-01-09 10:13:00,
2013-01-09 05:28:00,75.2,71.4,30.04,SSE,157,7.8,-999.0,88,-99.99,,,0.00,Acu-Link.com,2013-01-09 10:28:00,
2013-01-09 05:43:00,75.0,70.9,30.04,ESE,112,8.9,-999.0,87,-99.99,,,0.00,Acu-Link.com,2013-01-09 10:43:00,
2013-01-09 05:58:00,74.8,71.0,30.05,ESE,112,4.2,-999.0,88,-99.99,,,0.00,Acu-Link.com,2013-01-09 10:58:00,
2013-01-09 06:13:00,74.7,70.6,30.05,ESE,112,8.9,-999.0,87,-99.99,,,0.00,Acu-Link.com,2013-01-09 11:13:00,
2013-01-09 06:43:00,74.7,70.6,30.06,East,90,7.3,-999.0,87,-99.99,,,0.00,Acu-Link.com,2013-01-09 11:43:00,
2013-01-09 07:00:00,74.5,70.7,30.06,ESE,112,5.8,-999.0,88,-99.99,,,0.00,Acu-Link.com,2013-01-09 12:00:00,
2013-01-09 07:15:00,75.0,70.9,30.07,ESE,112,7.3,-999.0,87,-99.99,,,0.00,Acu-Link.com,2013-01-09 12:15:00,
2013-01-09 07:30:00,75.0,70.5,30.08,East,90,6.8,-999.0,86,-99.99,,,0.00,Acu-Link.com,2013-01-09 12:30:00,
2013-01-09 07:45:00,75.9,70.4,30.08,ESE,112,6.3,-999.0,83,-99.99,,,0.00,Acu-Link.com,2013-01-09 12:45:00,
2013-01-09 08:00:00,76.6,70.7,30.10,ESE,112,6.3,-999.0,82,-99.99,,,0.00,Acu-Link.com,2013-01-09 13:00:00,
2013-01-09 08:16:00,76.3,70.7,30.10,ESE,112,5.8,-999.0,83,-99.99,,,0.00,Acu-Link.com,2013-01-09 13:16:00,
2013-01-09 08:31:00,77.5,70.8,30.11,SSE,157,4.2,-999.0,80,-99.99,,,0.00,Acu-Link.com,2013-01-09 13:31:00,
2013-01-09 08:46:00,77.2,70.9,30.12,ESE,112,8.3,-999.0,81,-99.99,,,0.00,Acu-Link.com,2013-01-09 13:46:00,
2013-01-09 09:01:00,78.1,70.7,30.12,East,90,9.4,-999.0,78,-99.99,,,0.00,Acu-Link.com,2013-01-09 14:01:00,
2013-01-09 09:16:00,78.6,71.1,30.13,East,90,8.3,-999.0,78,-99.99,,,0.00,Acu-Link.com,2013-01-09 14:16:00,
2013-01-09 09:31:00,79.0,70.8,30.13,ESE,112,18.6,-999.0,76,-99.99,,,0.00,Acu-Link.com,2013-01-09 14:31:00,
2013-01-09 09:46:00,80.1,71.4,30.13,South,180,9.4,-999.0,75,-99.99,,,0.00,Acu-Link.com,2013-01-09 14:46:00,
2013-01-09 10:01:00,80.2,71.5,30.13,ESE,112,5.3,-999.0,75,-99.99,,,0.00,Acu-Link.com,2013-01-09 15:01:00,
2013-01-09 10:17:00,79.9,71.2,30.13,ESE,112,6.8,-999.0,75,-99.99,,,0.00,Acu-Link.com,2013-01-09 15:17:00,
2013-01-09 10:32:00,79.9,70.9,30.13,ESE,112,13.0,-999.0,74,-99.99,,,0.00,Acu-Link.com,2013-01-09 15:32:00,
2013-01-09 10:47:00,80.1,71.4,30.13,ESE,112,4.7,-999.0,75,-99.99,,,0.00,Acu-Link.com,2013-01-09 15:47:00,
2013-01-09 11:02:00,79.9,71.2,30.12,NE,45,4.7,-999.0,75,-99.99,,,0.00,Acu-Link.com,2013-01-09 16:02:00,
2013-01-09 11:17:00,80.4,71.3,30.12,ESE,112,11.9,-999.0,74,-99.99,,,0.00,Acu-Link.com,2013-01-09 16:17:00,
2013-01-09 11:32:00,80.6,71.9,30.11,ESE,112,8.3,-999.0,75,-99.99,,,0.00,Acu-Link.com,2013-01-09 16:32:00,
2013-01-09 11:47:00,81.1,72.0,30.10,East,90,16.1,-999.0,74,-99.99,,,0.00,Acu-Link.com,2013-01-09 16:47:00,
2013-01-09 12:02:00,81.5,72.0,30.10,ESE,112,16.1,-999.0,73,-99.99,,,0.00,Acu-Link.com,2013-01-09 17:02:00,
2013-01-09 12:17:00,79.9,71.6,30.10,ESE,112,9.9,-999.0,76,-99.99,,,0.00,Acu-Link.com,2013-01-09 17:17:00,
2013-01-09 12:33:00,81.3,71.8,30.09,SSE,157,11.9,-999.0,73,-99.99,,,0.00,Acu-Link.com,2013-01-09 17:33:00,
2013-01-09 12:48:00,80.8,71.7,30.09,ESE,112,8.3,-999.0,74,-99.99,,,0.00,Acu-Link.com,2013-01-09 17:48:00,
2013-01-09 13:03:00,80.1,71.0,30.08,ESE,112,13.5,-999.0,74,-99.99,,,0.00,Acu-Link.com,2013-01-09 18:03:00,
2013-01-09 13:18:00,80.2,71.1,30.07,ESE,112,6.3,-999.0,74,-99.99,,,0.00,Acu-Link.com,2013-01-09 18:18:00,
2013-01-09 13:33:00,81.1,71.2,30.08,SSE,157,12.5,-999.0,72,-99.99,,,0.00,Acu-Link.com,2013-01-09 18:33:00,
2013-01-09 13:48:00,80.8,71.3,30.07,ESE,112,16.1,-999.0,73,-99.99,,,0.00,Acu-Link.com,2013-01-09 18:48:00,
2013-01-09 14:04:00,80.1,71.8,30.07,ESE,112,6.8,-999.0,76,-99.99,,,0.00,Acu-Link.com,2013-01-09 19:04:00,
2013-01-09 14:19:00,80.6,71.5,30.07,SE,135,10.4,-999.0,74,-99.99,,,0.00,Acu-Link.com,2013-01-09 19:19:00,
2013-01-09 14:34:00,80.2,71.5,30.07,SE,135,7.8,-999.0,75,-99.99,,,0.00,Acu-Link.com,2013-01-09 19:34:00,
2013-01-09 14:49:00,80.1,71.4,30.07,ESE,112,8.3,-999.0,75,-99.99,,,0.00,Acu-Link.com,2013-01-09 19:49:00,
2013-01-09 15:04:00,79.9,71.6,30.07,ESE,112,8.3,-999.0,76,-99.99,,,0.00,Acu-Link.com,2013-01-09 20:04:00,
2013-01-09 15:19:00,79.9,71.6,30.07,SE,135,7.3,-999.0,76,-99.99,,,0.00,Acu-Link.com,2013-01-09 20:19:00,
2013-01-09 15:35:00,79.5,71.3,30.07,SE,135,9.9,-999.0,76,-99.99,,,0.00,Acu-Link.com,2013-01-09 20:35:00,
2013-01-09 15:50:00,80.1,71.4,30.07,ESE,112,9.9,-999.0,75,-99.99,,,0.00,Acu-Link.com,2013-01-09 20:50:00,
2013-01-09 16:05:00,79.2,71.3,30.07,ESE,112,5.3,-999.0,77,-99.99,,,0.00,Acu-Link.com,2013-01-09 21:05:00,
2013-01-09 16:20:00,78.8,71.0,30.08,SE,135,11.9,-999.0,77,-99.99,,,0.00,Acu-Link.com,2013-01-09 21:20:00,
2013-01-09 16:35:00,78.8,71.3,30.08,SE,135,3.7,-999.0,78,-99.99,,,0.00,Acu-Link.com,2013-01-09 21:35:00,
2013-01-09 16:50:00,78.4,71.0,30.09,ESE,112,7.8,-999.0,78,-99.99,,,0.00,Acu-Link.com,2013-01-09 21:50:00,
2013-01-09 17:06:00,77.9,71.2,30.08,East,90,8.9,-999.0,80,-99.99,,,0.00,Acu-Link.com,2013-01-09 22:06:00,
2013-01-09 17:21:00,77.5,70.8,30.08,ESE,112,6.3,-999.0,80,-99.99,,,0.00,Acu-Link.com,2013-01-09 22:21:00,
2013-01-09 17:36:00,77.2,70.5,30.09,ESE,112,7.3,-999.0,80,-99.99,,,0.00,Acu-Link.com,2013-01-09 22:36:00,
2013-01-09 17:51:00,76.6,70.7,30.09,ESE,112,4.7,-999.0,82,-99.99,,,0.00,Acu-Link.com,2013-01-09 22:51:00,
2013-01-09 18:06:00,76.5,70.6,30.11,ESE,112,3.7,-999.0,82,-99.99,,,0.00,Acu-Link.com,2013-01-09 23:06:00,
2013-01-09 18:21:00,76.1,70.5,30.10,East,90,5.8,-999.0,83,-99.99,,,0.00,Acu-Link.com,2013-01-09 23:21:00,
2013-01-09 18:36:00,75.9,70.4,30.11,ESE,112,3.7,-999.0,83,-99.99,,,0.00,Acu-Link.com,2013-01-09 23:36:00,
2013-01-09 18:52:00,75.9,70.4,30.11,ESE,112,4.7,-999.0,83,-99.99,,,0.00,Acu-Link.com,2013-01-09 23:52:00,
2013-01-09 19:07:00,75.9,70.4,30.11,ESE,112,8.9,-999.0,83,-99.99,,,0.00,Acu-Link.com,2013-01-10 00:07:00,
2013-01-09 19:22:00,75.9,70.4,30.11,ESE,112,4.2,-999.0,83,-99.99,,,0.00,Acu-Link.com,2013-01-10 00:22:00,
2013-01-09 19:37:00,75.9,70.7,30.12,ESE,112,4.2,-999.0,84,-99.99,,,0.00,Acu-Link.com,2013-01-10 00:37:00,
2013-01-09 19:52:00,75.9,70.7,30.12,East,90,7.8,-999.0,84,-99.99,,,0.00,Acu-Link.com,2013-01-10 00:52:00,
2013-01-09 20:07:00,75.7,70.9,30.12,ESE,112,7.8,-999.0,85,-99.99,,,0.00,Acu-Link.com,2013-01-10 01:07:00,
2013-01-09 20:22:00,75.7,70.5,30.12,ENE,67,4.7,-999.0,84,-99.99,,,0.00,Acu-Link.com,2013-01-10 01:22:00,
2013-01-09 20:37:00,75.6,70.4,30.13,East,90,5.8,-999.0,84,-99.99,,,0.00,Acu-Link.com,2013-01-10 01:37:00,
2013-01-09 20:53:00,75.4,70.2,30.13,ESE,112,4.2,-999.0,84,-99.99,,,0.00,Acu-Link.com,2013-01-10 01:53:00,
2013-01-09 21:08:00,75.4,70.6,30.13,ESE,112,5.3,-999.0,85,-99.99,,,0.00,Acu-Link.com,2013-01-10 02:08:00,
2013-01-09 21:23:00,75.6,70.8,30.14,ESE,112,6.8,-999.0,85,-99.99,,,0.00,Acu-Link.com,2013-01-10 02:23:00,
2013-01-09 21:38:00,75.6,70.4,30.14,ESE,112,6.8,-999.0,84,-99.99,,,0.00,Acu-Link.com,2013-01-10 02:38:00,
2013-01-09 21:53:00,75.6,70.1,30.14,ESE,112,4.7,-999.0,83,-99.99,,,0.00,Acu-Link.com,2013-01-10 02:53:00,
2013-01-09 22:08:00,75.6,70.1,30.14,ESE,112,6.8,-999.0,83,-99.99,,,0.00,Acu-Link.com,2013-01-10 03:08:00,
2013-01-09 22:23:00,75.4,69.9,30.14,ESE,112,10.9,-999.0,83,-99.99,,,0.00,Acu-Link.com,2013-01-10 03:23:00,
2013-01-09 22:38:00,75.4,69.5,30.14,SE,135,4.7,-999.0,82,-99.99,,,0.00,Acu-Link.com,2013-01-10 03:38:00,
2013-01-09 22:53:00,75.0,69.5,30.14,ESE,112,4.7,-999.0,83,-99.99,,,0.00,Acu-Link.com,2013-01-10 03:53:00,
2013-01-09 23:09:00,75.0,69.5,30.14,ESE,112,6.8,-999.0,83,-99.99,,,0.00,Acu-Link.com,2013-01-10 04:09:00,
2013-01-09 23:24:00,75.2,69.7,30.14,East,90,5.3,-999.0,83,-99.99,,,0.00,Acu-Link.com,2013-01-10 04:24:00,
2013-01-09 23:39:00,75.2,69.3,30.14,ESE,112,6.3,-999.0,82,-99.99,,,0.00,Acu-Link.com,2013-01-10 04:39:00,
2013-01-09 23:54:00,75.2,70.0,30.14,ESE,112,8.3,-999.0,84,-99.99,,,0.00,Acu-Link.com,2013-01-10 04:54:00,